Time;durP1;ratioP1;P1;durP2;ratioP2;P2;SDS_P1;SDS_P2;PMS_P1;PMS_P2;Temp;Humidity;BMP_temperature;BMP_pressure;BME280_temperature;BME280_humidity;BME280_pressure;Samples;Min_cycle;Max_cycle;Signal;HPM_P1;HPM_P2
2021/09/23 00:02:13;;;;;;;8.82;8.07;;;;;;;10.97;99.07;96498.88;5065678;28;20024;-67
2021/09/23 00:04:39;;;;;;;8.13;7.50;;;;;;;10.99;98.99;96489.06;5067601;28;20063;-66
2021/09/23 00:07:05;;;;;;;8.10;7.47;;;;;;;11.01;98.78;96480.06;5061589;28;20028;-66
2021/09/23 00:09:30;;;;;;;8.32;7.70;;;;;;;11.05;98.28;96472.75;5060849;28;20390;-66
2021/09/23 00:11:56;;;;;;;11.55;8.30;;;;;;;11.07;97.92;96475.25;5064393;28;20391;-66
2021/09/23 00:14:22;;;;;;;8.57;7.53;;;;;;;11.04;97.93;96463.16;5068274;28;20017;-67
2021/09/23 00:16:47;;;;;;;8.48;7.57;;;;;;;10.98;97.91;96467.13;5066913;28;20081;-67
2021/09/23 00:19:13;;;;;;;8.70;7.68;;;;;;;10.93;97.93;96457.94;5067824;28;20462;-66
2021/09/23 00:21:38;;;;;;;7.85;7.15;;;;;;;10.91;98.12;96459.84;5065220;28;20386;-66
2021/09/23 00:24:04;;;;;;;7.97;7.38;;;;;;;10.89;98.32;96458.19;5065917;28;20052;-66
2021/09/23 00:26:29;;;;;;;8.32;7.63;;;;;;;10.87;99.08;96456.66;5065331;28;20033;-66
2021/09/23 00:28:55;;;;;;;7.68;7.07;;;;;;;10.84;99.09;96460.34;5071146;28;20533;-67
2021/09/23 00:31:20;;;;;;;9.05;7.85;;;;;;;10.79;99.45;96457.25;5065903;28;20067;-67
2021/09/23 00:33:46;;;;;;;7.95;7.35;;;;;;;10.74;99.41;96460.25;5067694;28;20060;-67
2021/09/23 00:36:11;;;;;;;13.05;7.55;;;;;;;10.72;99.90;96458.69;5062510;28;20029;-67
2021/09/23 00:38:37;;;;;;;12.65;7.78;;;;;;;10.69;100.00;96458.97;5061693;28;20514;-66
2021/09/23 00:41:02;;;;;;;9.00;7.80;;;;;;;10.71;100.00;96452.63;5063717;28;20051;-66
2021/09/23 00:43:27;;;;;;;9.75;7.40;;;;;;;10.73;100.00;96457.78;5063138;28;20078;-66
2021/09/23 00:45:53;;;;;;;8.55;7.75;;;;;;;10.68;100.00;96446.75;5068786;28;20037;-66
2021/09/23 00:48:18;;;;;;;8.02;7.32;;;;;;;10.67;100.00;96447.72;5064546;28;20028;-67
2021/09/23 00:50:44;;;;;;;7.70;7.15;;;;;;;10.70;100.00;96452.72;5064034;28;20081;-67
2021/09/23 00:53:10;;;;;;;7.63;7.03;;;;;;;10.68;99.85;96452.88;5059318;28;20457;-67
2021/09/23 00:55:36;;;;;;;8.38;7.65;;;;;;;10.68;100.00;96452.88;5066386;28;20024;-67
2021/09/23 00:58:01;;;;;;;8.05;7.20;;;;;;;10.70;99.25;96452.72;5062431;28;20509;-67
2021/09/23 01:00:27;;;;;;;7.82;7.22;;;;;;;10.66;99.84;96448.69;5067390;28;20047;-67
2021/09/23 01:02:52;;;;;;;8.55;7.75;;;;;;;10.67;99.95;96456.47;5063178;28;20032;-67
2021/09/23 01:05:18;;;;;;;7.55;6.82;;;;;;;10.66;100.00;96456.56;5059273;28;20406;-66
2021/09/23 01:07:46;;;;;;;7.75;7.05;;;;;;;10.67;100.00;96458.25;5066056;28;20040;-67
2021/09/23 01:10:12;;;;;;;7.80;7.20;;;;;;;10.65;99.98;96460.16;5062021;28;20028;-67
2021/09/23 01:12:38;;;;;;;8.25;7.55;;;;;;;10.67;99.64;96447.72;5062283;28;20162;-66
2021/09/23 01:15:04;;;;;;;10.48;7.55;;;;;;;10.65;99.92;96450.50;5061734;28;20582;-66
2021/09/23 01:17:30;;;;;;;8.43;7.55;;;;;;;10.61;99.77;96449.06;5065184;28;20028;-66
2021/09/23 01:19:55;;;;;;;7.82;7.13;;;;;;;10.58;99.35;96447.50;5068087;28;20397;-66
2021/09/23 01:22:21;;;;;;;8.18;7.40;;;;;;;10.58;99.51;96444.03;5061438;28;20044;-66
2021/09/23 01:24:46;;;;;;;8.10;7.53;;;;;;;10.58;99.84;96444.88;5068409;28;20043;-67
2021/09/23 01:27:12;;;;;;;7.35;6.75;;;;;;;10.57;99.49;96447.63;5055253;28;20502;-67
2021/09/23 01:29:39;;;;;;;8.82;7.25;;;;;;;10.57;99.71;96448.47;5071933;28;20017;-67
2021/09/23 01:32:06;;;;;;;7.88;7.18;;;;;;;10.55;99.49;96450.38;5066760;28;20032;-67
2021/09/23 01:34:33;;;;;;;7.35;6.85;;;;;;;10.50;99.34;96457.81;5066764;28;20020;-67
2021/09/23 01:36:59;;;;;;;7.90;7.20;;;;;;;10.46;99.35;96454.59;5059047;28;20034;-67
2021/09/23 01:39:26;;;;;;;9.43;7.00;;;;;;;10.43;99.50;96451.34;5066170;28;20029;-66
2021/09/23 01:41:52;;;;;;;7.15;6.53;;;;;;;10.44;99.24;96447.75;5063901;28;20029;-66
2021/09/23 01:44:17;;;;;;;7.60;7.07;;;;;;;10.43;99.45;96446.09;5064115;28;20037;-67
2021/09/23 01:46:43;;;;;;;6.65;6.15;;;;;;;10.44;99.58;96447.75;5065450;28;20055;-67
2021/09/23 01:49:08;;;;;;;7.93;6.63;;;;;;;10.39;99.73;96440.22;5063838;28;20017;-67
2021/09/23 01:51:34;;;;;;;8.02;7.22;;;;;;;10.35;100.00;96448.47;5065938;28;20020;-67
2021/09/23 01:54:00;;;;;;;8.13;7.53;;;;;;;10.31;99.96;96442.63;5067164;28;20031;-67
2021/09/23 01:56:25;;;;;;;8.05;7.35;;;;;;;10.28;100.00;96448.97;5065332;28;20027;-67
2021/09/23 01:58:51;;;;;;;9.75;7.63;;;;;;;10.23;100.00;96440.59;5062279;28;20031;-67
2021/09/23 02:01:17;;;;;;;7.20;6.68;;;;;;;10.24;100.00;96447.53;5062792;28;20056;-67
2021/09/23 02:03:42;;;;;;;8.30;6.40;;;;;;;10.26;99.82;96440.34;5066705;28;20464;-67
2021/09/23 02:06:07;;;;;;;9.60;7.25;;;;;;;10.22;100.00;96444.16;5061251;28;20032;-66
2021/09/23 02:08:33;;;;;;;7.93;7.25;;;;;;;10.18;100.00;96455.91;5063009;28;20033;-67
2021/09/23 02:10:58;;;;;;;8.02;6.93;;;;;;;10.13;100.00;96442.28;5060550;28;20081;-67
2021/09/23 02:13:24;;;;;;;7.68;6.97;;;;;;;10.09;100.00;96428.53;5063433;28;20040;-67
2021/09/23 02:15:49;;;;;;;7.45;6.85;;;;;;;10.13;99.96;96432.56;5062802;28;20075;-67
2021/09/23 02:18:15;;;;;;;7.45;6.72;;;;;;;10.09;100.00;96422.44;5060942;28;20383;-67
2021/09/23 02:20:40;;;;;;;7.72;7.07;;;;;;;10.11;100.00;96421.34;5064134;28;20020;-67
2021/09/23 02:23:06;;;;;;;7.30;6.70;;;;;;;10.09;100.00;96428.53;5059713;28;20033;-67
2021/09/23 02:25:31;;;;;;;8.48;7.78;;;;;;;10.06;100.00;96418.25;5078371;28;20027;-67
2021/09/23 02:27:57;;;;;;;7.70;7.00;;;;;;;10.07;100.00;96424.34;5083883;28;20021;-67
2021/09/23 02:30:22;;;;;;;8.30;7.53;;;;;;;10.04;100.00;96428.06;5075875;28;20111;-67
2021/09/23 02:32:48;;;;;;;8.85;8.05;;;;;;;10.02;100.00;96424.72;5061593;28;20021;-67
2021/09/23 02:35:13;;;;;;;7.72;7.13;;;;;;;9.99;100.00;96419.69;5083263;28;20024;-66
2021/09/23 02:37:38;;;;;;;7.45;6.72;;;;;;;9.97;100.00;96425.06;5069302;28;20048;-66
2021/09/23 02:40:05;;;;;;;7.68;6.97;;;;;;;9.97;100.00;96409.28;5068674;28;20016;-66
2021/09/23 02:42:31;;;;;;;8.00;7.30;;;;;;;9.99;100.00;96415.25;5059324;28;20044;-66
2021/09/23 02:44:56;;;;;;;8.43;7.00;;;;;;;9.98;100.00;96410.13;5049242;28;20036;-67
2021/09/23 02:47:26;;;;;;;9.63;6.85;;;;;;;9.95;100.00;96421.72;5060709;28;20506;-67
2021/09/23 02:49:52;;;;;;;8.30;7.55;;;;;;;9.93;100.00;96412.25;5061517;28;20471;-67
2021/09/23 02:52:18;;;;;;;7.40;6.80;;;;;;;9.92;100.00;96400.06;5072915;28;20044;-67
2021/09/23 02:54:43;;;;;;;8.35;7.13;;;;;;;9.89;100.00;96403.78;5057148;28;20070;-67
2021/09/23 02:57:09;;;;;;;10.02;7.10;;;;;;;9.87;100.00;96405.72;5058743;28;20445;-67
2021/09/23 02:59:34;;;;;;;8.27;7.68;;;;;;;9.84;100.00;96404.13;5063368;28;20075;-67
2021/09/23 03:01:59;;;;;;;8.75;7.95;;;;;;;9.84;100.00;96396.25;5062447;28;20021;-67
2021/09/23 03:04:25;;;;;;;8.13;7.30;;;;;;;9.85;100.00;96397.94;5060449;28;20029;-67
2021/09/23 03:06:50;;;;;;;7.63;7.13;;;;;;;9.83;100.00;96396.34;5068983;28;20129;-67
2021/09/23 03:09:16;;;;;;;8.52;7.63;;;;;;;9.78;100.00;96401.16;5085793;28;20057;-67
2021/09/23 03:11:42;;;;;;;8.27;7.60;;;;;;;9.79;100.00;96402.81;5072431;28;20043;-67
2021/09/23 03:14:08;;;;;;;8.50;7.75;;;;;;;9.80;100.00;96402.72;5074930;28;20291;-67
2021/09/23 03:16:33;;;;;;;8.45;7.50;;;;;;;9.78;100.00;96406.41;5082751;28;20483;-67
2021/09/23 03:18:59;;;;;;;8.15;7.53;;;;;;;9.77;100.00;96404.72;5068932;28;20054;-67
2021/09/23 03:21:24;;;;;;;8.43;7.72;;;;;;;9.78;100.00;96403.78;5059459;28;20020;-67
2021/09/23 03:23:50;;;;;;;9.18;7.90;;;;;;;9.77;100.00;96402.09;5059580;28;20037;-67
2021/09/23 03:26:15;;;;;;;8.13;7.47;;;;;;;9.72;100.00;96400.69;5067614;28;20111;-67
2021/09/23 03:28:41;;;;;;;7.80;7.22;;;;;;;9.72;100.00;96400.69;5070122;28;20027;-67
2021/09/23 03:31:06;;;;;;;12.48;7.80;;;;;;;9.74;100.00;96401.38;5067663;28;20028;-67
2021/09/23 03:33:32;;;;;;;8.20;7.40;;;;;;;9.69;100.00;96395.66;5070033;28;20021;-67
2021/09/23 03:35:57;;;;;;;8.15;7.45;;;;;;;9.63;100.00;96401.41;5068733;28;20461;-67
2021/09/23 03:38:23;;;;;;;8.15;7.45;;;;;;;9.65;100.00;96394.22;5069110;28;20028;-67
2021/09/23 03:40:49;;;;;;;8.52;7.68;;;;;;;9.68;100.00;96398.41;5070066;28;20020;-67
2021/09/23 03:43:19;;;;;;;10.82;7.80;;;;;;;9.69;100.00;96403.56;5067359;28;20059;-67
2021/09/23 03:45:46;;;;;;;7.85;7.25;;;;;;;9.65;100.00;96391.59;5069763;28;20469;-67
2021/09/23 03:48:11;;;;;;;11.90;8.48;;;;;;;9.65;100.00;96390.75;5064998;28;20338;-68
2021/09/23 03:50:37;;;;;;;8.90;8.10;;;;;;;9.62;100.00;96388.38;5064450;28;20127;-68
2021/09/23 03:53:03;;;;;;;9.65;8.05;;;;;;;9.60;100.00;96401.63;5056112;28;20067;-68
2021/09/23 03:55:28;;;;;;;10.90;8.00;;;;;;;9.59;100.00;96402.56;5059161;28;20475;-67
2021/09/23 03:57:54;;;;;;;10.30;8.25;;;;;;;9.57;100.00;96404.47;5056519;28;20108;-67
2021/09/23 04:00:23;;;;;;;8.93;8.02;;;;;;;9.57;100.00;96400.06;5057309;28;20463;-67
2021/09/23 04:02:49;;;;;;;8.40;7.60;;;;;;;9.55;100.00;96409.88;5063493;28;20029;-68
2021/09/23 04:05:15;;;;;;;8.30;7.22;;;;;;;9.54;100.00;96402.09;5055225;28;20442;-67
2021/09/23 04:07:40;;;;;;;7.75;6.97;;;;;;;9.56;100.00;96408.91;5074246;28;20028;-67
2021/09/23 04:10:07;;;;;;;8.40;7.43;;;;;;;9.53;100.00;96410.94;5092436;28;20455;-67
2021/09/23 04:12:34;;;;;;;8.25;7.55;;;;;;;9.50;100.00;96406.75;5072884;28;20095;-67
2021/09/23 04:14:59;;;;;;;9.48;7.30;;;;;;;9.48;100.00;96402.56;5071789;28;20041;-67
2021/09/23 04:17:25;;;;;;;8.80;7.97;;;;;;;9.44;100.00;96417.72;5082826;28;20032;-67
2021/09/23 04:19:50;;;;;;;8.85;7.80;;;;;;;9.37;100.00;96414.72;5060458;28;20401;-67
2021/09/23 04:22:16;;;;;;;8.02;7.43;;;;;;;9.39;100.00;96418.06;5068961;28;20399;-67
2021/09/23 04:24:41;;;;;;;12.05;8.27;;;;;;;9.42;100.00;96425.75;5071708;28;20102;-68
2021/09/23 04:27:07;;;;;;;9.00;8.20;;;;;;;9.44;100.00;96415.09;5060684;28;20031;-68
2021/09/23 04:29:33;;;;;;;9.25;8.27;;;;;;;9.46;100.00;96408.78;5075615;28;20098;-68
2021/09/23 04:31:58;;;;;;;7.78;7.07;;;;;;;9.48;100.00;96402.56;5068584;28;20021;-68
2021/09/23 04:34:24;;;;;;;8.93;8.13;;;;;;;9.52;100.00;96393.50;5062446;28;20387;-68
2021/09/23 04:36:49;;;;;;;8.93;8.00;;;;;;;9.52;100.00;96389.09;5057666;28;20020;-67
2021/09/23 04:39:17;;;;;;;8.82;8.13;;;;;;;9.51;100.00;96392.66;5068731;28;20024;-67
2021/09/23 04:41:43;;;;;;;8.65;7.78;;;;;;;9.52;100.00;96393.50;5071042;28;20020;-67
2021/09/23 04:44:08;;;;;;;8.95;8.15;;;;;;;9.48;100.00;96394.69;5069279;28;20039;-67
2021/09/23 04:46:34;;;;;;;8.52;7.82;;;;;;;9.45;100.00;96399.22;5071607;28;20025;-67
2021/09/23 04:49:00;;;;;;;8.05;7.35;;;;;;;9.45;100.00;96399.22;5062014;28;20039;-67
2021/09/23 04:51:27;;;;;;;9.60;8.18;;;;;;;9.44;100.00;96402.81;5061186;28;20085;-67
2021/09/23 04:53:53;;;;;;;12.13;8.18;;;;;;;9.42;100.00;96398.63;5061914;28;20032;-67
2021/09/23 04:56:19;;;;;;;8.77;8.02;;;;;;;9.41;100.00;96395.16;5065206;28;20066;-67
2021/09/23 04:58:44;;;;;;;9.35;8.55;;;;;;;9.43;100.00;96400.28;5065109;28;20033;-67
2021/09/23 05:01:10;;;;;;;16.48;8.32;;;;;;;9.40;100.00;96398.75;5067383;28;20067;-67
2021/09/23 05:03:35;;;;;;;8.32;7.60;;;;;;;9.41;100.00;96400.44;5059889;28;20434;-67
2021/09/23 05:06:01;;;;;;;8.18;7.55;;;;;;;9.39;100.00;96399.69;5066134;28;20039;-67
2021/09/23 05:08:26;;;;;;;8.07;7.38;;;;;;;9.40;100.00;96400.53;5080009;28;20028;-67
2021/09/23 05:10:52;;;;;;;9.95;8.18;;;;;;;9.38;100.00;96397.19;5071885;28;20112;-67
2021/09/23 05:13:18;;;;;;;8.23;7.57;;;;;;;9.37;100.00;96392.88;5070777;28;20832;-67
2021/09/23 05:15:44;;;;;;;11.35;8.25;;;;;;;9.34;100.00;96401.81;5056525;28;20041;-67
2021/09/23 05:18:10;;;;;;;9.18;8.30;;;;;;;9.34;100.00;96408.88;5071470;28;20032;-67
2021/09/23 05:20:36;;;;;;;8.52;7.72;;;;;;;9.29;100.00;96403.97;5069100;28;20081;-67
2021/09/23 05:23:02;;;;;;;10.18;7.50;;;;;;;9.28;100.00;96418.06;5069814;28;20052;-67
2021/09/23 05:25:27;;;;;;;9.50;8.05;;;;;;;9.29;100.00;96404.81;5070385;28;20099;-67
2021/09/23 05:27:56;;;;;;;9.15;8.32;;;;;;;9.29;100.00;96404.81;5069009;28;20078;-67
2021/09/23 05:30:22;;;;;;;10.02;8.90;;;;;;;9.30;100.00;96406.50;5069348;28;20024;-67
2021/09/23 05:32:47;;;;;;;10.73;8.48;;;;;;;9.31;100.00;96404.69;5065836;28;20025;-68
2021/09/23 05:35:13;;;;;;;10.18;8.27;;;;;;;9.36;100.00;96410.44;5059294;28;20036;-67
2021/09/23 05:37:39;;;;;;;8.77;7.63;;;;;;;9.34;100.00;96412.34;5064014;28;20109;-68
2021/09/23 05:40:06;;;;;;;8.82;7.35;;;;;;;9.32;100.00;96407.22;5061185;28;20033;-70
2021/09/23 05:42:31;;;;;;;8.80;8.10;;;;;;;9.34;100.00;96419.41;5058702;28;20446;-71
2021/09/23 05:44:56;;;;;;;13.57;8.10;;;;;;;9.37;100.00;96406.03;5068850;28;20108;-70
2021/09/23 05:47:22;;;;;;;9.02;8.13;;;;;;;9.34;100.00;96412.34;5069923;28;20029;-68
2021/09/23 05:49:47;;;;;;;9.98;8.98;;;;;;;9.35;100.00;96408.75;5068086;28;20154;-69
2021/09/23 05:52:16;;;;;;;12.05;8.68;;;;;;;9.38;100.00;96416.41;5068276;28;20028;-65
2021/09/23 05:54:41;;;;;;;8.65;7.75;;;;;;;9.40;100.00;96414.53;5067726;28;20391;-69
2021/09/23 05:57:07;;;;;;;9.07;8.27;;;;;;;9.46;100.00;96419.31;5069183;28;20023;-67
2021/09/23 05:59:32;;;;;;;9.25;8.35;;;;;;;9.51;100.00;96415.47;5079093;28;20095;-70
2021/09/23 06:01:57;;;;;;;8.95;8.10;;;;;;;9.46;100.00;96414.03;5068377;28;20032;-69
2021/09/23 06:04:24;;;;;;;9.95;8.90;;;;;;;9.45;100.00;96417.63;5062994;28;20031;-68
2021/09/23 06:06:49;;;;;;;12.02;9.27;;;;;;;9.45;100.00;96416.78;5063166;28;20025;-69
2021/09/23 06:09:15;;;;;;;8.80;8.10;;;;;;;9.47;100.00;96422.75;5089279;28;20027;-71
2021/09/23 06:11:41;;;;;;;8.32;7.72;;;;;;;9.48;100.00;96421.78;5078206;28;20399;-72
2021/09/23 06:14:07;;;;;;;9.07;8.20;;;;;;;9.52;100.00;96419.78;5052661;28;20024;-70
2021/09/23 06:16:32;;;;;;;9.13;8.05;;;;;;;9.55;100.00;96419.53;5068691;28;20563;-67
2021/09/23 06:18:58;;;;;;;9.80;8.25;;;;;;;9.56;100.00;96423.84;5063617;28;20032;-67
2021/09/23 06:21:23;;;;;;;8.90;8.20;;;;;;;9.59;100.00;96427.09;5064503;28;20609;-72
2021/09/23 06:23:49;;;;;;;9.27;8.57;;;;;;;9.59;100.00;96423.59;5067915;28;20044;-73
2021/09/23 06:26:14;;;;;;;9.65;8.85;;;;;;;9.62;100.00;96433.06;5068306;28;20050;-72
2021/09/23 06:28:40;;;;;;;9.13;8.25;;;;;;;9.63;100.00;96432.09;5060548;28;20025;-72
2021/09/23 06:31:05;;;;;;;10.80;9.02;;;;;;;9.64;100.00;96434.63;5061583;28;20027;-71
2021/09/23 06:33:31;;;;;;;9.65;8.85;;;;;;;9.65;100.00;96428.41;5069584;28;20020;-67
2021/09/23 06:35:57;;;;;;;11.13;9.40;;;;;;;9.69;100.00;96429.84;5056292;28;20104;-64
2021/09/23 06:38:22;;;;;;;9.82;8.93;;;;;;;9.73;100.00;96428.66;5063822;28;20024;-64
2021/09/23 06:40:48;;;;;;;9.75;8.50;;;;;;;9.77;100.00;96433.66;5062425;28;20029;-60
2021/09/23 06:43:13;;;;;;;9.40;8.70;;;;;;;9.79;100.00;96426.50;5070549;28;20035;-60
2021/09/23 06:45:39;;;;;;;12.23;9.07;;;;;;;9.82;100.00;96432.34;5066043;28;20479;-61
2021/09/23 06:48:04;;;;;;;9.88;8.98;;;;;;;9.88;100.00;96428.41;5071090;28;20043;-60
2021/09/23 06:50:30;;;;;;;9.93;8.98;;;;;;;9.94;100.00;96427.94;5067882;28;20110;-60
2021/09/23 06:52:55;;;;;;;9.50;8.50;;;;;;;10.00;100.00;96432.72;5073344;28;20024;-61
2021/09/23 06:55:21;;;;;;;9.43;8.57;;;;;;;10.02;100.00;96433.41;5071345;28;20029;-61
2021/09/23 06:57:46;;;;;;;10.10;9.15;;;;;;;10.03;100.00;96429.84;5068197;28;20033;-61
2021/09/23 07:00:12;;;;;;;9.50;8.70;;;;;;;10.05;100.00;96432.34;5072612;28;20099;-61
2021/09/23 07:02:38;;;;;;;10.05;9.13;;;;;;;10.06;100.00;96443.69;5067552;28;20037;-61
2021/09/23 07:05:05;;;;;;;10.15;9.13;;;;;;;10.06;100.00;96438.44;5073327;28;20206;-63
2021/09/23 07:07:30;;;;;;;10.00;9.02;;;;;;;10.12;100.00;96440.59;5067590;28;20589;-63
2021/09/23 07:09:56;;;;;;;11.02;8.48;;;;;;;10.17;100.00;96441.06;5070045;28;20100;-65
2021/09/23 07:12:22;;;;;;;9.63;8.63;;;;;;;10.23;100.00;96450.28;5068753;28;20028;-66
2021/09/23 07:14:47;;;;;;;11.43;9.32;;;;;;;10.32;100.00;96439.03;5071136;28;20036;-66
2021/09/23 07:17:13;;;;;;;10.43;9.43;;;;;;;10.52;100.00;96450.63;5072017;28;20419;-63
2021/09/23 07:19:39;;;;;;;12.45;9.27;;;;;;;10.75;100.00;96447.94;5071758;28;20416;-63
2021/09/23 07:22:05;;;;;;;10.88;9.75;;;;;;;10.94;100.00;96442.00;5066881;28;20066;-64
2021/09/23 07:24:30;;;;;;;10.40;9.30;;;;;;;11.14;100.00;96445.63;5071631;28;20101;-66
2021/09/23 07:26:56;;;;;;;10.63;9.55;;;;;;;11.41;100.00;96446.94;5067098;28;20028;-65
2021/09/23 07:29:22;;;;;;;8.93;8.02;;;;;;;11.64;100.00;96454.72;5071496;28;20067;-65
2021/09/23 07:31:47;;;;;;;9.15;8.05;;;;;;;11.85;100.00;96456.50;5069021;28;20635;-64
2021/09/23 07:34:13;;;;;;;8.70;8.00;;;;;;;12.03;100.00;96465.47;5068284;28;20029;-65
2021/09/23 07:36:39;;;;;;;7.32;6.63;;;;;;;12.18;99.63;96460.72;5074855;28;20032;-65
2021/09/23 07:39:07;;;;;;;6.90;6.32;;;;;;;12.36;98.98;96462.69;5072078;28;20036;-65
2021/09/23 07:41:34;;;;;;;6.40;5.80;;;;;;;12.40;99.02;96465.91;5064589;28;20062;-66
2021/09/23 07:44:00;;;;;;;6.63;6.00;;;;;;;12.33;97.94;96462.97;5065984;28;20028;-65
2021/09/23 07:46:25;;;;;;;4.72;4.43;;;;;;;12.34;96.76;96461.16;5070023;28;20016;-64
2021/09/23 07:48:53;;;;;;;7.18;5.72;;;;;;;12.38;95.32;96458.13;5069830;28;20021;-64
2021/09/23 07:51:20;;;;;;;5.90;5.32;;;;;;;12.45;96.01;96450.47;5071593;28;20691;-64
2021/09/23 07:53:45;;;;;;;8.25;5.82;;;;;;;12.60;96.94;96456.25;5071626;28;20029;-64
2021/09/23 07:56:11;;;;;;;5.50;5.10;;;;;;;12.72;95.26;96456.97;5068672;28;20130;-64
2021/09/23 07:58:36;;;;;;;4.97;4.68;;;;;;;12.88;95.41;96451.13;5072478;28;20031;-63
2021/09/23 08:01:02;;;;;;;5.70;5.30;;;;;;;13.09;95.24;96451.00;5064861;28;20075;-66
2021/09/23 08:03:27;;;;;;;6.28;5.85;;;;;;;13.43;95.25;96455.03;5067034;28;20086;-66
2021/09/23 08:05:53;;;;;;;6.72;6.10;;;;;;;13.66;94.87;96454.72;5070361;28;20031;-66
2021/09/23 08:08:18;;;;;;;10.35;6.72;;;;;;;13.81;95.09;96444.53;5071837;28;20107;-63
2021/09/23 08:10:43;;;;;;;7.28;6.57;;;;;;;13.91;92.20;96445.34;5072878;28;20086;-64
2021/09/23 08:13:09;;;;;;;7.72;7.03;;;;;;;13.97;91.25;96449.22;5072274;28;20125;-64
2021/09/23 08:15:35;;;;;;;7.07;6.55;;;;;;;14.10;91.83;96446.25;5070178;28;20042;-64
2021/09/23 08:18:00;;;;;;;8.20;6.35;;;;;;;14.23;90.22;96449.38;5069708;28;20024;-66
2021/09/23 08:20:25;;;;;;;6.57;5.95;;;;;;;14.36;88.24;96448.22;5071660;28;20021;-65
2021/09/23 08:22:51;;;;;;;6.22;5.63;;;;;;;14.50;88.79;96452.19;5072165;28;20090;-65
2021/09/23 08:25:16;;;;;;;6.53;5.93;;;;;;;14.57;89.60;96448.81;5071302;28;20024;-64
2021/09/23 08:27:42;;;;;;;7.28;6.57;;;;;;;14.65;89.28;96449.88;5068097;28;20025;-64
2021/09/23 08:30:08;;;;;;;7.32;6.72;;;;;;;14.73;88.52;96453.47;5065936;28;20024;-67
2021/09/23 08:32:34;;;;;;;10.25;7.60;;;;;;;14.76;87.18;96452.34;5070540;28;20047;-65
2021/09/23 08:35:05;;;;;;;6.47;5.93;;;;;;;14.87;88.08;96454.78;5073772;28;20380;-66
2021/09/23 08:37:32;;;;;;;6.93;6.32;;;;;;;14.90;86.87;96454.47;5070411;28;20023;-65
2021/09/23 08:39:57;;;;;;;6.70;5.90;;;;;;;14.90;87.17;96454.47;5064812;28;20044;-66
2021/09/23 08:42:23;;;;;;;8.43;7.22;;;;;;;14.93;87.22;96458.66;5069383;28;20032;-66
2021/09/23 08:44:48;;;;;;;7.47;6.78;;;;;;;14.99;86.30;96462.53;5069785;28;20028;-66
2021/09/23 08:47:14;;;;;;;8.15;7.45;;;;;;;15.00;84.59;96456.25;5069997;28;20028;-65
2021/09/23 08:49:40;;;;;;;7.22;6.70;;;;;;;15.01;85.65;96465.84;5066370;28;20551;-66
2021/09/23 08:52:06;;;;;;;8.02;7.32;;;;;;;15.00;84.93;96461.53;5067665;28;20029;-66
2021/09/23 08:54:31;;;;;;;8.02;7.32;;;;;;;14.93;85.27;96461.31;5071895;28;20498;-66
2021/09/23 08:57:01;;;;;;;9.27;6.75;;;;;;;14.99;86.02;96462.53;5068102;28;20031;-65
2021/09/23 08:59:27;;;;;;;6.88;6.28;;;;;;;15.22;86.21;96467.38;5071314;28;20367;-66
2021/09/23 09:01:53;;;;;;;10.30;6.28;;;;;;;15.37;84.98;96463.22;5063833;28;20023;-66
2021/09/23 09:04:18;;;;;;;11.35;7.45;;;;;;;15.35;84.22;96473.13;5068793;28;20032;-66
2021/09/23 09:06:54;;;;;;;6.45;5.95;;;;;;;15.37;83.47;96465.00;5067178;28;20660;-65
2021/09/23 09:09:20;;;;;;;7.03;6.53;;;;;;;15.34;83.31;96471.44;5062302;28;20027;-65
2021/09/23 09:11:46;;;;;;;7.10;6.50;;;;;;;15.33;82.47;96475.94;5068020;28;20070;-64
2021/09/23 09:14:22;;;;;;;7.85;7.15;;;;;;;15.34;82.80;96479.41;5071903;28;20021;-62
2021/09/23 09:16:53;;;;;;;7.35;6.72;;;;;;;15.43;83.06;96473.19;5065724;28;20017;-63
2021/09/23 09:19:19;;;;;;;7.80;7.20;;;;;;;15.49;82.88;96474.41;5066210;28;20035;-63
2021/09/23 09:21:46;;;;;;;9.35;8.45;;;;;;;15.52;82.92;96478.56;5070196;28;20104;-63
2021/09/23 09:24:16;;;;;;;8.95;6.95;;;;;;;15.50;82.87;96469.94;5066583;28;20519;-63
2021/09/23 09:26:43;;;;;;;9.68;8.80;;;;;;;15.55;79.41;96467.63;5069596;28;20020;-64
2021/09/23 09:29:11;;;;;;;10.50;8.68;;;;;;;15.59;79.45;96463.72;5064396;28;20107;-63
2021/09/23 09:31:45;;;;;;;9.25;8.45;;;;;;;15.77;79.00;96463.66;5066964;28;20104;-63
2021/09/23 09:34:12;;;;;;;10.43;7.97;;;;;;;15.90;78.89;96455.31;5069879;28;20418;-63
2021/09/23 09:36:48;;;;;;;8.50;7.65;;;;;;;15.93;78.17;96456.84;5069983;28;20035;-64
2021/09/23 09:39:16;;;;;;;7.88;7.18;;;;;;;16.00;78.53;96450.72;5067377;28;20462;-63
2021/09/23 09:41:44;;;;;;;8.75;7.95;;;;;;;16.18;77.58;96455.13;5067362;28;20497;-66
2021/09/23 09:44:13;;;;;;;11.52;7.57;;;;;;;16.24;77.75;96456.31;5065218;28;20063;-68
2021/09/23 09:46:41;;;;;;;8.75;8.10;;;;;;;16.46;77.20;96457.56;5068759;28;20025;-68
2021/09/23 09:49:08;;;;;;;9.15;8.25;;;;;;;16.46;77.91;96460.22;5067076;28;20503;-67
2021/09/23 09:51:39;;;;;;;7.72;7.13;;;;;;;16.50;76.67;96450.97;5071161;28;20027;-64
2021/09/23 09:54:06;;;;;;;7.45;6.82;;;;;;;16.57;76.43;96446.66;5067060;28;20035;-62
2021/09/23 09:56:32;;;;;;;7.57;7.00;;;;;;;16.76;75.31;96456.16;5069281;28;20093;-62
2021/09/23 09:59:18;;;;;;;7.82;7.22;;;;;;;16.67;74.09;96446.53;5067471;28;20446;-64
2021/09/23 10:01:49;;;;;;;8.05;7.30;;;;;;;16.90;73.91;96443.25;5068149;28;20052;-65
2021/09/23 10:04:16;;;;;;;8.07;7.35;;;;;;;16.83;73.86;96448.38;5069566;28;20056;-61
2021/09/23 10:06:42;;;;;;;10.70;7.28;;;;;;;16.87;74.27;96446.25;5067110;28;20028;-61
2021/09/23 10:09:10;;;;;;;7.22;6.55;;;;;;;16.95;73.33;96437.44;5071259;28;20386;-65
2021/09/23 10:11:46;;;;;;;7.57;6.90;;;;;;;16.96;73.88;96439.13;5065788;28;20115;-64
2021/09/23 10:14:14;;;;;;;7.55;6.93;;;;;;;17.03;73.25;96435.66;5067747;28;20025;-65
2021/09/23 10:16:39;;;;;;;7.20;6.47;;;;;;;17.17;72.89;96436.84;5065378;28;20027;-64
2021/09/23 10:19:06;;;;;;;7.50;6.90;;;;;;;17.21;73.20;96431.19;5071777;28;20025;-65
2021/09/23 10:21:33;;;;;;;8.18;7.50;;;;;;;17.29;73.43;96434.69;5070037;28;20593;-68
2021/09/23 10:23:58;;;;;;;7.70;7.10;;;;;;;17.46;72.96;96432.00;5070539;28;20055;-69
2021/09/23 10:26:28;;;;;;;10.15;6.75;;;;;;;17.65;73.32;96422.00;5069984;28;20044;-67
2021/09/23 10:28:55;;;;;;;7.00;6.35;;;;;;;17.97;71.77;96425.63;5066251;28;20510;-60
2021/09/23 10:31:29;;;;;;;6.50;5.97;;;;;;;18.13;70.94;96411.44;5068787;28;20074;-61
2021/09/23 10:33:55;;;;;;;9.65;6.90;;;;;;;18.17;70.49;96420.75;5065947;28;20082;-61
2021/09/23 10:36:21;;;;;;;6.95;6.35;;;;;;;18.23;70.52;96421.91;5068198;28;20044;-59
2021/09/23 10:38:47;;;;;;;5.30;4.90;;;;;;;18.41;68.47;96416.31;5062470;28;20121;-59
2021/09/23 10:41:13;;;;;;;6.65;6.15;;;;;;;18.67;69.67;96412.53;5066616;28;20070;-59
2021/09/23 10:43:41;;;;;;;7.43;6.82;;;;;;;18.95;67.35;96414.69;5066512;28;20035;-59
2021/09/23 10:46:06;;;;;;;5.70;5.20;;;;;;;19.23;67.10;96414.19;5064122;28;20025;-59
2021/09/23 10:48:37;;;;;;;7.55;5.60;;;;;;;19.59;66.64;96409.03;5068964;28;20493;-59
2021/09/23 10:51:05;;;;;;;5.57;5.18;;;;;;;19.94;65.33;96405.88;5065930;28;20031;-59
2021/09/23 10:53:33;;;;;;;5.20;4.85;;;;;;;20.26;64.66;96411.03;5065141;28;20027;-59
2021/09/23 10:56:02;;;;;;;5.72;5.20;;;;;;;20.41;61.46;96411.03;5065982;28;20036;-59
2021/09/23 10:58:29;;;;;;;5.20;4.78;;;;;;;20.79;61.36;96399.34;5065734;28;20024;-60
2021/09/23 11:00:58;;;;;;;5.15;4.72;;;;;;;20.96;59.49;96400.75;5065668;28;20037;-59
2021/09/23 11:03:32;;;;;;;5.22;4.72;;;;;;;21.26;59.02;96399.81;5068888;28;20043;-59
2021/09/23 11:05:57;;;;;;;5.07;4.63;;;;;;;21.45;56.45;96395.66;5067476;28;20440;-59
2021/09/23 11:08:23;;;;;;;4.35;3.95;;;;;;;21.58;57.15;96390.41;5068491;28;20103;-59
2021/09/23 11:10:49;;;;;;;4.40;4.00;;;;;;;22.07;55.03;96395.88;5064407;28;20098;-59
2021/09/23 11:13:17;;;;;;;4.30;4.00;;;;;;;21.98;55.47;96394.41;5069348;28;20024;-59
2021/09/23 11:15:44;;;;;;;5.72;4.32;;;;;;;22.02;56.18;96393.81;5067565;28;20020;-59
2021/09/23 11:18:11;;;;;;;5.30;4.10;;;;;;;22.23;56.35;96394.75;5068108;28;20029;-60
2021/09/23 11:20:38;;;;;;;3.65;3.35;;;;;;;22.08;51.88;96388.69;5059768;28;20025;-59
2021/09/23 11:23:08;;;;;;;3.92;3.55;;;;;;;21.88;53.58;96400.97;5062643;28;20076;-59
2021/09/23 11:25:39;;;;;;;5.28;3.75;;;;;;;21.91;52.63;96388.19;5068581;28;20383;-59
2021/09/23 11:28:05;;;;;;;4.50;4.10;;;;;;;21.76;53.45;96391.78;5067398;28;20024;-59